createdAt,value
2023-01-13T00:00:20.762Z,52.83
2023-01-13T00:03:10.780Z,52.88
2023-01-13T00:06:03.037Z,52.94
2023-01-13T00:08:53.282Z,53.00
2023-01-13T00:11:43.634Z,53.14
2023-01-13T00:14:36.880Z,53.22
2023-01-13T00:17:27.025Z,53.28
2023-01-13T00:20:17.618Z,53.33
2023-01-13T00:23:07.469Z,53.39
2023-01-13T00:26:00.489Z,53.46
2023-01-13T00:28:51.142Z,53.56
2023-01-13T00:31:40.894Z,53.52
2023-01-13T00:34:30.970Z,53.65
2023-01-13T00:37:21.598Z,53.67
2023-01-13T00:40:14.546Z,53.73
2023-01-13T00:43:22.509Z,53.76
2023-01-13T00:46:14.387Z,53.85
2023-01-13T00:49:04.013Z,53.85
2023-01-13T00:51:53.865Z,54.02
2023-01-13T00:54:43.324Z,54.09
2023-01-13T00:57:33.158Z,54.08
2023-01-13T01:00:23.906Z,54.12
2023-01-13T01:03:14.195Z,54.22
2023-01-13T01:06:15.762Z,54.28
2023-01-13T01:09:07.174Z,54.19
2023-01-13T01:11:57.295Z,54.31
2023-01-13T01:14:47.574Z,54.36
2023-01-13T01:17:37.925Z,54.37
2023-01-13T01:20:28.080Z,54.43
2023-01-13T01:23:17.948Z,54.51
2023-01-13T01:26:09.694Z,54.56
2023-01-13T01:29:02.158Z,54.62
2023-01-13T01:31:52.282Z,54.66
2023-01-13T01:34:42.341Z,54.68
2023-01-13T01:37:32.635Z,54.73
2023-01-13T01:40:22.652Z,54.78
2023-01-13T01:43:35.168Z,54.80
2023-01-13T01:46:25.400Z,54.90
2023-01-13T01:49:19.457Z,54.94
2023-01-13T01:52:13.869Z,54.90
2023-01-13T01:55:08.331Z,54.88
2023-01-13T01:58:03.365Z,54.96
2023-01-13T02:00:54.036Z,54.98
2023-01-13T02:03:48.300Z,55.08
2023-01-13T02:06:39.114Z,55.06
2023-01-13T02:09:29.677Z,55.18
2023-01-13T02:12:32.233Z,55.25
2023-01-13T02:15:27.645Z,55.29
2023-01-13T02:18:38.564Z,55.30
2023-01-13T02:21:59.311Z,55.31
2023-01-13T02:25:13.427Z,55.27
2023-01-13T02:28:36.541Z,55.30
2023-01-13T02:31:44.971Z,55.24
2023-01-13T02:34:40.487Z,55.29
2023-01-13T02:37:32.908Z,55.23
2023-01-13T02:40:30.130Z,55.27
2023-01-13T02:43:44.649Z,55.25
2023-01-13T02:46:39.297Z,55.21
2023-01-13T02:49:36.048Z,55.18
2023-01-13T02:52:30.863Z,55.20
2023-01-13T02:55:26.879Z,55.18
2023-01-13T02:58:23.516Z,55.26
2023-01-13T03:01:13.516Z,55.16
2023-01-13T03:04:14.234Z,55.16
2023-01-13T03:07:13.015Z,55.21
2023-01-13T03:10:11.190Z,55.21
2023-01-13T03:13:12.905Z,55.21
2023-01-13T03:16:18.264Z,55.16
2023-01-13T03:19:21.986Z,55.20
2023-01-13T03:22:23.330Z,55.27
2023-01-13T03:25:17.598Z,55.24
2023-01-13T03:28:11.828Z,55.26
2023-01-13T03:31:08.095Z,55.28
2023-01-13T03:34:01.810Z,55.30
2023-01-13T03:36:56.603Z,55.18
2023-01-13T03:39:51.540Z,55.13
2023-01-13T03:43:05.151Z,55.15
2023-01-13T03:46:01.083Z,55.22
2023-01-13T03:48:57.806Z,55.26
2023-01-13T03:51:55.671Z,55.36
2023-01-13T03:54:50.592Z,55.31
2023-01-13T03:57:47.131Z,55.31
2023-01-13T04:00:45.339Z,55.36
2023-01-13T04:03:42.249Z,55.38
2023-01-13T04:06:41.947Z,55.43
2023-01-13T04:09:38.776Z,55.48
2023-01-13T04:12:52.239Z,55.57
2023-01-13T04:15:44.680Z,55.67
2023-01-13T04:18:37.774Z,55.63
2023-01-13T04:21:27.788Z,55.76
2023-01-13T04:24:17.909Z,55.78
2023-01-13T04:27:08.399Z,55.77
2023-01-13T04:29:58.080Z,55.90
2023-01-13T04:32:48.251Z,55.95
2023-01-13T04:35:39.010Z,55.96
2023-01-13T04:38:28.718Z,55.95
2023-01-13T04:41:18.843Z,56.01
2023-01-13T04:44:08.910Z,56.10
2023-01-13T04:46:59.932Z,56.13
2023-01-13T04:49:49.815Z,56.16
2023-01-13T04:52:40.235Z,56.11
2023-01-13T04:55:31.915Z,56.17
2023-01-13T04:58:22.598Z,56.20
2023-01-13T05:01:12.472Z,56.31
2023-01-13T05:04:03.338Z,56.36
2023-01-13T05:06:53.465Z,56.41
2023-01-13T05:09:43.808Z,56.47
2023-01-13T05:12:51.401Z,56.43
2023-01-13T05:16:00.020Z,56.41
2023-01-13T05:18:49.981Z,56.46
2023-01-13T05:22:12.045Z,56.49
2023-01-13T05:25:19.276Z,56.53
2023-01-13T05:28:09.752Z,56.55
2023-01-13T05:30:59.966Z,56.50
2023-01-13T05:33:49.613Z,56.63
2023-01-13T05:36:39.508Z,56.69
2023-01-13T05:39:49.740Z,56.72
2023-01-13T05:42:57.871Z,56.76
2023-01-13T05:45:47.830Z,56.71
2023-01-13T05:48:40.122Z,56.67
2023-01-13T05:51:30.086Z,56.68
2023-01-13T05:54:19.964Z,56.64
2023-01-13T05:57:10.333Z,56.65
2023-01-13T06:00:00.617Z,56.69
2023-01-13T06:02:50.977Z,56.70
2023-01-13T06:05:41.072Z,56.70
2023-01-13T06:08:32.058Z,56.80
2023-01-13T06:11:22.096Z,56.85
2023-01-13T06:14:12.363Z,56.88
2023-01-13T06:17:02.806Z,56.97
2023-01-13T06:19:52.891Z,57.10
2023-01-13T06:22:45.704Z,57.20
2023-01-13T06:25:43.429Z,57.24
2023-01-13T06:28:35.013Z,57.26
2023-01-13T06:31:25.549Z,57.29
2023-01-13T06:34:16.772Z,57.34
2023-01-13T06:37:07.274Z,57.32
2023-01-13T06:39:59.958Z,57.35
2023-01-13T06:43:07.136Z,57.53
2023-01-13T06:45:58.679Z,57.59
2023-01-13T06:48:48.251Z,57.69
2023-01-13T06:51:38.034Z,58.61
2023-01-13T06:54:28.158Z,58.56
2023-01-13T06:57:17.940Z,57.77
2023-01-13T07:00:10.752Z,57.36
2023-01-13T07:03:10.173Z,57.15
2023-01-13T07:06:00.502Z,56.95
2023-01-13T07:08:50.347Z,56.69
2023-01-13T07:11:40.868Z,56.49
2023-01-13T07:14:48.634Z,56.29
2023-01-13T07:17:38.941Z,56.13
2023-01-13T07:20:29.542Z,55.97
2023-01-13T07:23:19.632Z,55.85
2023-01-13T07:26:10.762Z,55.79
2023-01-13T07:29:01.055Z,55.80
2023-01-13T07:31:51.839Z,55.88
2023-01-13T07:34:42.308Z,56.00
2023-01-13T07:37:32.738Z,56.12
2023-01-13T07:40:23.609Z,56.12
2023-01-13T07:43:33.363Z,56.20
2023-01-13T07:46:23.557Z,56.26
2023-01-13T07:49:14.461Z,56.26
2023-01-13T07:52:04.779Z,56.28
2023-01-13T07:54:54.640Z,56.25
2023-01-13T07:57:44.734Z,56.18
2023-01-13T08:00:34.985Z,56.05
2023-01-13T08:03:25.670Z,55.85
2023-01-13T08:06:17.029Z,55.70
2023-01-13T08:09:07.521Z,55.60
2023-01-13T08:12:12.249Z,55.47
2023-01-13T08:15:02.704Z,55.30
2023-01-13T08:17:53.037Z,55.16
2023-01-13T08:20:43.131Z,55.20
2023-01-13T08:23:33.322Z,55.13
2023-01-13T08:26:23.092Z,55.09
2023-01-13T08:29:14.903Z,55.07
2023-01-13T08:32:05.573Z,55.11
2023-01-13T08:34:55.891Z,55.06
2023-01-13T08:37:46.928Z,55.18
2023-01-13T08:40:37.779Z,55.35
2023-01-13T08:43:27.917Z,55.25
2023-01-13T08:46:18.146Z,55.21
2023-01-13T08:49:08.083Z,55.15
2023-01-13T08:51:58.590Z,55.08
2023-01-13T08:54:52.783Z,55.06
2023-01-13T08:57:42.555Z,55.03
2023-01-13T09:00:32.959Z,55.04
2023-01-13T09:03:23.144Z,55.05
2023-01-13T09:06:13.699Z,54.97
2023-01-13T09:09:06.977Z,54.98
2023-01-13T09:12:17.153Z,54.82
2023-01-13T09:15:09.143Z,54.69
2023-01-13T09:17:59.985Z,54.56
2023-01-13T09:20:49.811Z,54.45
2023-01-13T09:23:39.669Z,54.40
2023-01-13T09:26:29.749Z,54.43
2023-01-13T09:29:19.701Z,54.43
2023-01-13T09:32:12.712Z,54.24
2023-01-13T09:35:03.180Z,54.06
2023-01-13T09:37:53.570Z,54.01
2023-01-13T09:40:44.211Z,54.05
2023-01-13T09:43:55.965Z,54.02
2023-01-13T09:46:52.490Z,53.97
2023-01-13T09:49:45.052Z,53.96
2023-01-13T09:52:36.115Z,53.93
2023-01-13T09:55:33.857Z,53.97
2023-01-13T09:58:24.987Z,53.90
2023-01-13T10:01:25.970Z,53.90
2023-01-13T10:04:17.407Z,53.80
2023-01-13T10:07:14.860Z,53.80
2023-01-13T10:10:10.057Z,53.74
2023-01-13T10:13:20.331Z,53.73
2023-01-13T10:16:28.459Z,53.60
2023-01-13T10:32:53.462Z,52.98
2023-01-13T10:35:59.268Z,52.48
2023-01-13T10:38:51.715Z,52.14
2023-01-13T10:41:41.811Z,51.97
2023-01-13T10:44:31.740Z,51.76
2023-01-13T10:47:27.988Z,51.43
2023-01-13T10:50:29.953Z,51.18
2023-01-13T10:53:24.499Z,50.92
2023-01-13T10:56:19.593Z,50.72
2023-01-13T10:59:23.594Z,50.68
2023-01-13T11:02:29.479Z,50.54
2023-01-13T11:05:25.760Z,50.39
2023-01-13T11:08:21.295Z,50.47
2023-01-13T11:11:29.842Z,50.34
2023-01-13T11:14:37.032Z,50.40
2023-01-13T11:17:42.380Z,50.70
2023-01-13T11:20:38.388Z,50.97
2023-01-13T11:23:35.839Z,51.17
2023-01-13T11:26:33.707Z,51.28
2023-01-13T11:29:33.173Z,51.09
2023-01-13T11:32:25.926Z,50.89
2023-01-13T11:35:22.571Z,50.73
2023-01-13T11:38:20.042Z,50.83
2023-01-13T11:41:17.103Z,50.88
2023-01-13T11:44:26.992Z,50.75
2023-01-13T11:47:18.546Z,50.30
2023-01-13T11:50:17.207Z,49.71
2023-01-13T11:53:19.869Z,49.37
2023-01-13T11:56:41.457Z,49.27
2023-01-13T11:59:46.050Z,48.43
2023-01-13T12:02:50.731Z,48.30
2023-01-13T12:05:44.448Z,48.15
2023-01-13T12:09:00.404Z,47.87
2023-01-13T12:12:17.297Z,47.36
2023-01-13T12:15:35.800Z,46.92
2023-01-13T12:18:51.457Z,46.81
2023-01-13T12:21:57.618Z,46.53
2023-01-13T12:24:52.341Z,46.84
2023-01-13T12:27:47.743Z,47.22
2023-01-13T12:30:43.863Z,47.38
2023-01-13T12:33:46.194Z,47.40
2023-01-13T12:36:56.923Z,47.29
2023-01-13T12:39:59.618Z,47.51
2023-01-13T12:43:13.590Z,47.35
2023-01-13T12:46:33.459Z,47.15
2023-01-13T12:49:35.465Z,46.91
2023-01-13T12:52:26.515Z,47.22
2023-01-13T12:55:22.668Z,47.19
2023-01-13T12:58:29.531Z,47.50
2023-01-13T13:01:35.927Z,47.41
2023-01-13T13:04:48.294Z,47.00
2023-01-13T13:07:44.417Z,46.41
2023-01-13T13:10:38.065Z,46.21
2023-01-13T13:13:46.236Z,46.16
2023-01-13T13:16:48.452Z,45.67
2023-01-13T13:19:53.048Z,45.49
2023-01-13T13:22:52.094Z,45.48
2023-01-13T13:26:02.678Z,45.30
2023-01-13T13:29:09.482Z,45.00
2023-01-13T13:32:36.546Z,44.98
2023-01-13T13:35:40.403Z,44.89
2023-01-13T13:39:10.425Z,44.95
2023-01-13T13:42:30.167Z,44.66
2023-01-13T13:45:40.274Z,44.59
2023-01-13T13:48:32.131Z,44.63
2023-01-13T13:51:30.250Z,44.60
2023-01-13T13:54:23.983Z,44.41
2023-01-13T13:57:20.712Z,44.44
2023-01-13T14:00:24.939Z,44.69
2023-01-13T14:03:26.782Z,44.90
2023-01-13T14:06:25.147Z,44.97
2023-01-13T14:09:20.652Z,44.89
2023-01-13T14:12:20.013Z,44.97
2023-01-13T14:15:36.790Z,45.00
2023-01-13T14:18:27.696Z,45.14
2023-01-13T14:21:25.347Z,45.36
2023-01-13T14:24:20.701Z,45.33
2023-01-13T14:27:17.831Z,45.36
2023-01-13T14:30:13.452Z,45.44
2023-01-13T14:33:03.688Z,45.43
2023-01-13T14:36:17.047Z,45.45
2023-01-13T14:39:27.733Z,45.47
2023-01-13T14:42:19.375Z,45.59
2023-01-13T14:45:26.987Z,45.66
2023-01-13T14:48:17.783Z,45.75
2023-01-13T14:51:11.351Z,45.76
2023-01-13T14:54:01.220Z,45.90
2023-01-13T14:57:09.107Z,45.88
2023-01-13T15:00:04.161Z,45.83
2023-01-13T15:03:07.297Z,45.85
2023-01-13T15:05:57.350Z,45.78
2023-01-13T15:08:48.232Z,45.81
2023-01-13T15:11:38.497Z,45.96
2023-01-13T15:14:32.512Z,46.03
2023-01-13T15:17:22.859Z,46.01
2023-01-13T15:20:17.568Z,46.05
2023-01-13T15:23:07.525Z,46.08
2023-01-13T15:25:57.440Z,46.03
2023-01-13T15:28:47.047Z,46.10
2023-01-13T15:31:36.970Z,46.22
2023-01-13T15:34:26.737Z,46.52
2023-01-13T15:37:16.983Z,46.76
2023-01-13T15:40:12.816Z,46.89
2023-01-13T15:43:20.331Z,47.11
2023-01-13T15:46:34.394Z,47.24
2023-01-13T15:49:34.890Z,47.21
2023-01-13T15:52:26.213Z,47.26
2023-01-13T15:55:16.092Z,47.32
2023-01-13T15:58:06.252Z,47.38
2023-01-13T16:00:56.498Z,47.51
2023-01-13T16:03:46.836Z,47.46
2023-01-13T16:06:37.363Z,47.47
2023-01-13T16:09:27.515Z,47.51
2023-01-13T16:12:17.676Z,47.68
2023-01-13T16:15:09.600Z,47.68
2023-01-13T16:18:01.258Z,47.70
2023-01-13T16:20:53.809Z,47.72
2023-01-13T16:23:44.539Z,47.80
2023-01-13T16:26:37.599Z,47.84
2023-01-13T16:29:27.588Z,47.85
2023-01-13T16:32:18.455Z,47.83
2023-01-13T16:35:10.781Z,47.89
2023-01-13T16:38:01.471Z,47.92
2023-01-13T16:40:52.367Z,47.85
2023-01-13T16:43:42.751Z,48.00
2023-01-13T16:46:33.641Z,48.12
2023-01-13T16:49:23.755Z,48.11
2023-01-13T16:52:13.886Z,48.11
2023-01-13T16:55:04.250Z,48.02
2023-01-13T16:57:54.046Z,48.06
2023-01-13T17:00:46.993Z,48.08
2023-01-13T17:03:38.561Z,48.16
2023-01-13T17:06:33.598Z,48.20
2023-01-13T17:09:25.459Z,48.21
2023-01-13T17:12:15.630Z,48.23
2023-01-13T17:15:05.864Z,48.29
2023-01-13T17:17:57.352Z,48.34
2023-01-13T17:20:47.742Z,48.42
2023-01-13T17:23:38.325Z,48.42
2023-01-13T17:26:37.370Z,48.43
2023-01-13T17:29:27.925Z,48.48
2023-01-13T17:32:23.225Z,48.48
2023-01-13T17:35:15.785Z,48.47
2023-01-13T17:38:05.782Z,48.50
2023-01-13T17:40:55.903Z,48.48
2023-01-13T17:43:46.098Z,48.42
2023-01-13T17:46:36.436Z,48.44
2023-01-13T17:49:26.867Z,48.43
2023-01-13T17:52:17.331Z,48.34
2023-01-13T17:55:08.637Z,48.28
2023-01-13T17:57:58.951Z,48.27
2023-01-13T18:00:50.091Z,48.36
2023-01-13T18:03:40.310Z,48.37
2023-01-13T18:06:30.574Z,48.39
2023-01-13T18:09:21.087Z,48.46
2023-01-13T18:12:11.820Z,48.49
2023-01-13T18:15:02.799Z,48.53
2023-01-13T18:17:52.639Z,48.56
2023-01-13T18:21:02.853Z,48.60
2023-01-13T18:24:10.729Z,48.53
2023-01-13T18:27:18.798Z,48.57
2023-01-13T18:30:10.642Z,48.46
2023-01-13T18:33:00.587Z,48.49
2023-01-13T18:35:50.987Z,48.42
2023-01-13T18:38:41.063Z,48.37
2023-01-13T18:41:48.343Z,48.28
2023-01-13T18:44:38.938Z,48.30
2023-01-13T18:47:32.228Z,48.31
2023-01-13T18:50:22.726Z,48.62
2023-01-13T18:53:12.577Z,48.86
2023-01-13T18:56:05.583Z,48.35
2023-01-13T18:58:55.349Z,48.33
2023-01-13T19:01:45.999Z,48.26
2023-01-13T19:04:37.432Z,48.25
2023-01-13T19:07:29.296Z,48.24
2023-01-13T19:10:20.623Z,48.23
2023-01-13T19:13:11.117Z,48.20
2023-01-13T19:16:08.042Z,48.10
2023-01-13T19:18:58.377Z,48.07
2023-01-13T19:21:48.318Z,47.95
2023-01-13T19:24:41.901Z,47.88
2023-01-13T19:27:32.717Z,47.92
2023-01-13T19:30:23.261Z,47.97
2023-01-13T19:33:13.611Z,48.02
2023-01-13T19:36:05.485Z,47.98
2023-01-13T19:38:56.252Z,48.04
2023-01-13T19:42:03.856Z,48.10
2023-01-13T19:45:12.607Z,48.15
2023-01-13T19:48:05.568Z,48.21
2023-01-13T19:50:56.056Z,48.32
2023-01-13T19:53:47.384Z,48.40
2023-01-13T19:56:38.913Z,48.35
2023-01-13T19:59:30.598Z,48.41
2023-01-13T20:02:28.391Z,48.42
2023-01-13T20:05:22.773Z,48.44
2023-01-13T20:08:13.201Z,48.49
2023-01-13T20:11:17.991Z,48.59
2023-01-13T20:14:08.706Z,48.59
2023-01-13T20:16:58.706Z,48.60
2023-01-13T20:19:49.015Z,48.68
2023-01-13T20:22:42.788Z,48.67
2023-01-13T20:25:33.328Z,48.75
2023-01-13T20:28:24.088Z,48.79
2023-01-13T20:31:15.367Z,48.84
2023-01-13T20:34:05.701Z,48.85
2023-01-13T20:36:56.072Z,48.84
2023-01-13T20:39:46.655Z,48.96
2023-01-13T20:42:44.984Z,49.04
2023-01-13T20:45:35.584Z,49.16
2023-01-13T20:48:26.041Z,49.23
2023-01-13T20:51:16.660Z,49.22
2023-01-13T20:54:07.673Z,49.32
2023-01-13T20:56:57.863Z,49.40
2023-01-13T20:59:48.066Z,49.45
2023-01-13T21:02:39.796Z,49.52
2023-01-13T21:05:30.213Z,49.56
2023-01-13T21:08:20.663Z,49.66
2023-01-13T21:11:11.340Z,49.77
2023-01-13T21:14:19.181Z,49.81
2023-01-13T21:17:34.116Z,49.93
2023-01-13T21:20:24.252Z,50.01
2023-01-13T21:23:15.583Z,50.07
2023-01-13T21:26:06.240Z,50.07
2023-01-13T21:29:00.116Z,50.11
2023-01-13T21:31:50.245Z,50.26
2023-01-13T21:34:40.834Z,50.41
2023-01-13T21:37:31.101Z,50.47
2023-01-13T21:40:22.126Z,50.59
2023-01-13T21:43:32.575Z,50.56
2023-01-13T21:46:41.346Z,50.50
2023-01-13T21:49:32.082Z,50.61
2023-01-13T21:52:25.435Z,50.70
2023-01-13T21:55:28.877Z,50.80
2023-01-13T21:58:19.792Z,50.90
2023-01-13T22:01:11.846Z,51.01
2023-01-13T22:04:14.564Z,51.11
2023-01-13T22:07:06.529Z,51.15
2023-01-13T22:09:57.357Z,51.18
2023-01-13T22:12:48.142Z,51.28
2023-01-13T22:15:37.940Z,51.31
2023-01-13T22:18:27.686Z,51.29
2023-01-13T22:21:17.981Z,51.37
2023-01-13T22:24:08.586Z,51.51
2023-01-13T22:26:58.478Z,51.58
2023-01-13T22:29:48.966Z,51.67
2023-01-13T22:32:39.774Z,51.69
2023-01-13T22:35:30.046Z,51.71
2023-01-13T22:38:20.660Z,51.86
2023-01-13T22:41:11.967Z,52.00
2023-01-13T22:44:01.716Z,52.12
2023-01-13T22:46:51.655Z,52.12
2023-01-13T22:49:42.225Z,52.19
2023-01-13T22:52:34.020Z,52.23
2023-01-13T22:55:24.209Z,52.05
2023-01-13T22:58:14.437Z,52.27
2023-01-13T23:01:13.467Z,52.64
2023-01-13T23:04:04.437Z,52.91
2023-01-13T23:06:54.347Z,52.96
2023-01-13T23:09:44.612Z,53.05
2023-01-13T23:12:34.446Z,53.11
2023-01-13T23:15:24.989Z,53.26
2023-01-13T23:18:15.100Z,53.53
2023-01-13T23:21:11.170Z,53.70
2023-01-13T23:24:01.607Z,53.83
2023-01-13T23:26:51.896Z,54.09
2023-01-13T23:29:41.974Z,54.23
2023-01-13T23:32:32.516Z,53.86
2023-01-13T23:35:22.667Z,54.00
2023-01-13T23:38:12.439Z,54.30
2023-01-13T23:41:02.479Z,54.35
2023-01-13T23:43:57.237Z,54.53
2023-01-13T23:46:47.100Z,54.71
2023-01-13T23:49:37.651Z,54.77
2023-01-13T23:52:27.820Z,54.93
2023-01-13T23:55:18.421Z,55.13
2023-01-13T23:58:08.824Z,55.28
